McKinney's Hourly Summary for Friday, July 6, 2018
Hour Temp
(f)
RH
(%)
Solar Rad.
(MJ/m2)
Rainfall
(in)
Wind
(mph)
7/6/2018 12:00 AM 81 68 0 0 0.1
7/6/2018 1:00 AM 80 73 0 0 0.04
7/6/2018 2:00 AM 78 77 0 0 0
7/6/2018 3:00 AM 78 81 0 0 0.12
7/6/2018 4:00 AM 77 82 0 0 0.61
7/6/2018 5:00 AM 76 83 0 0 0.19
7/6/2018 6:00 AM 76 86 0 0 1.61
7/6/2018 7:00 AM 75 86 0.07 0 2.18
7/6/2018 8:00 AM 78 74 0.58 0 1.09
7/6/2018 9:00 AM 82 66 1.2 0 1.75
7/6/2018 10:00 AM 86 59 1.8 0 2.19
7/6/2018 11:00 AM 89 54 2.14 0 3.78
7/6/2018 12:00 PM 91 49 2.5 0 3.8
7/6/2018 1:00 PM 92 45 2.29 0 3.65
7/6/2018 2:00 PM 94 41 2.62 0 3.75
7/6/2018 3:00 PM 95 38 2.24 0 4.29
7/6/2018 4:00 PM 76 60 0.21 0.31 7.6
7/6/2018 5:00 PM 76 92 0.48 0 2.75
7/6/2018 6:00 PM 81 68 1.36 0 4.61
7/6/2018 7:00 PM 82 65 0.84 0 4.31
7/6/2018 8:00 PM 81 71 0.1 0 1.11
7/6/2018 9:00 PM 79 76 0.01 0 1.13
7/6/2018 10:00 PM 77 79 0 0 0.7
7/6/2018 11:00 PM 76 82 0 0 0.43
Data Summary 81 68 18.44 0.31 2.16